createdAt,value
2019-02-21T00:02:32.590Z,7.23
2019-02-21T00:05:17.519Z,6.33
2019-02-21T00:08:02.414Z,7.07
2019-02-21T00:10:47.552Z,7.43
2019-02-21T00:13:32.561Z,8.33
2019-02-21T00:16:17.575Z,6.97
2019-02-21T00:19:01.751Z,6.50
2019-02-21T00:21:45.911Z,8.03
2019-02-21T00:24:30.045Z,7.50
2019-02-21T00:27:15.071Z,7.53
2019-02-21T00:30:00.381Z,8.50
2019-02-21T00:32:45.139Z,7.50
2019-02-21T00:35:30.146Z,7.73
2019-02-21T00:38:15.193Z,7.73
2019-02-21T00:40:46.849Z,7.00
2019-02-21T00:43:38.371Z,7.30
2019-02-21T00:46:22.838Z,7.63
2019-02-21T00:49:07.912Z,7.40
2019-02-21T00:51:52.182Z,7.47
2019-02-21T00:54:36.378Z,7.07
2019-02-21T00:57:21.443Z,7.37
2019-02-21T01:00:06.372Z,9.77
2019-02-21T01:02:51.413Z,7.70
2019-02-21T01:05:36.421Z,7.40
2019-02-21T01:08:21.465Z,7.50
2019-02-21T01:11:05.895Z,7.90
2019-02-21T01:13:50.846Z,8.10
2019-02-21T01:16:35.761Z,8.27
2019-02-21T01:19:20.804Z,7.50
2019-02-21T01:22:05.816Z,8.80
2019-02-21T01:24:50.007Z,9.00
2019-02-21T01:27:34.870Z,8.40
2019-02-21T01:30:19.969Z,8.73
2019-02-21T01:33:04.842Z,9.23
2019-02-21T01:35:49.831Z,9.67
2019-02-21T01:38:34.841Z,9.07
2019-02-21T01:41:19.898Z,10.83
2019-02-21T01:44:04.578Z,10.83
2019-02-21T01:49:52.256Z,10.60
2019-02-21T01:52:37.269Z,10.77
2019-02-21T01:55:22.315Z,10.70
2019-02-21T01:58:06.634Z,11.50
2019-02-21T02:00:51.682Z,12.00
2019-02-21T02:03:37.023Z,12.30
2019-02-21T02:06:21.582Z,12.40
2019-02-21T02:09:10.372Z,12.13
2019-02-21T02:11:54.561Z,12.27
2019-02-21T02:14:39.419Z,12.40
2019-02-21T02:17:24.326Z,13.63
2019-02-21T02:20:09.342Z,13.17
2019-02-21T02:22:54.410Z,13.47
2019-02-21T02:25:37.013Z,12.73
2019-02-21T02:28:21.623Z,12.57
2019-02-21T02:31:06.613Z,13.43
2019-02-21T02:33:50.831Z,13.17
2019-02-21T02:36:35.748Z,12.10
2019-02-21T02:39:20.702Z,13.07
2019-02-21T02:42:04.953Z,12.60
2019-02-21T02:44:50.003Z,14.37
2019-02-21T02:47:34.978Z,14.50
2019-02-21T02:50:19.943Z,13.97
2019-02-21T02:53:04.766Z,14.63
2019-02-21T02:55:49.766Z,13.30
2019-02-21T02:58:34.670Z,14.27
2019-02-21T03:01:19.025Z,13.87
2019-02-21T03:04:01.656Z,15.03
2019-02-21T03:06:53.127Z,15.20
2019-02-21T03:09:38.055Z,14.90
2019-02-21T03:12:23.187Z,15.83
2019-02-21T03:15:08.076Z,17.10
2019-02-21T03:17:53.033Z,17.03
2019-02-21T03:20:35.428Z,16.37
2019-02-21T03:23:20.050Z,17.70
2019-02-21T03:26:04.911Z,17.37
2019-02-21T03:28:47.431Z,17.73
2019-02-21T03:31:53.433Z,16.70
2019-02-21T03:34:25.912Z,17.67
2019-02-21T03:37:08.449Z,17.40
2019-02-21T03:39:52.838Z,18.90
2019-02-21T03:42:35.282Z,18.80
2019-02-21T03:45:19.942Z,17.83
2019-02-21T03:48:04.694Z,17.97
2019-02-21T03:50:48.798Z,17.90
2019-02-21T03:53:33.945Z,19.40
2019-02-21T03:56:16.437Z,19.57
2019-02-21T03:59:00.953Z,19.93
2019-02-21T04:01:45.954Z,19.67
2019-02-21T04:04:30.880Z,19.90
2019-02-21T04:07:15.934Z,20.43
2019-02-21T04:10:00.834Z,20.77
2019-02-21T04:12:45.880Z,22.27
2019-02-21T04:15:30.986Z,22.23
2019-02-21T04:18:15.986Z,22.20
2019-02-21T04:21:01.045Z,21.17
2019-02-21T04:23:45.249Z,21.90
2019-02-21T04:26:30.244Z,20.43
2019-02-21T04:29:15.129Z,23.10
2019-02-21T04:32:00.055Z,21.87
2019-02-21T04:34:44.174Z,24.07
2019-02-21T04:37:29.314Z,22.07
2019-02-21T04:40:14.293Z,24.77
2019-02-21T04:42:59.342Z,24.00
2019-02-21T04:45:41.739Z,21.23
2019-02-21T04:48:33.061Z,21.60
2019-02-21T04:51:17.302Z,22.40
2019-02-21T04:53:59.739Z,23.73
2019-02-21T04:56:51.091Z,23.30
2019-02-21T04:59:36.118Z,23.40
2019-02-21T05:02:29.190Z,22.50
2019-02-21T05:05:07.507Z,23.63
2019-02-21T05:07:52.388Z,24.57
2019-02-21T05:10:37.422Z,23.80
2019-02-21T05:13:22.543Z,24.13
2019-02-21T05:16:07.511Z,23.77
2019-02-21T05:18:52.437Z,25.67
2019-02-21T05:21:36.697Z,25.00
2019-02-21T05:24:21.730Z,26.10
2019-02-21T05:27:11.268Z,25.33
2019-02-21T05:29:55.771Z,27.37
2019-02-21T05:33:00.471Z,28.87
2019-02-21T05:36:04.613Z,28.13
2019-02-21T05:42:15.052Z,29.03
2019-02-21T05:45:18.902Z,27.47
2019-02-21T05:48:29.910Z,26.03
2019-02-21T05:51:22.787Z,26.00
2019-02-21T05:54:27.354Z,26.90
2019-02-21T05:57:25.199Z,28.27
2019-02-21T06:00:16.178Z,27.10
2019-02-21T06:03:20.358Z,25.90
2019-02-21T06:06:24.629Z,27.73
2019-02-21T06:09:23.307Z,26.50
2019-02-21T06:12:33.469Z,27.33
2019-02-21T06:15:33.717Z,24.67
2019-02-21T06:18:37.924Z,27.03
2019-02-21T06:21:36.636Z,25.83
2019-02-21T06:24:40.771Z,23.20
2019-02-21T06:27:37.959Z,26.67
2019-02-21T06:30:27.714Z,27.80
2019-02-21T06:33:12.633Z,26.87
2019-02-21T06:35:56.825Z,28.17
2019-02-21T06:38:41.862Z,28.27
2019-02-21T06:41:26.905Z,25.37
2019-02-21T06:44:11.842Z,26.07
2019-02-21T06:46:56.087Z,26.57
2019-02-21T06:49:40.947Z,26.03
2019-02-21T06:52:25.839Z,25.83
2019-02-21T06:55:10.890Z,26.03
2019-02-21T06:57:55.807Z,27.00
2019-02-21T07:00:40.675Z,25.07
2019-02-21T07:03:25.655Z,25.70
2019-02-21T07:06:10.541Z,23.93
2019-02-21T07:08:54.890Z,24.57
2019-02-21T07:11:39.828Z,25.30
2019-02-21T07:14:24.829Z,26.40
2019-02-21T07:17:09.822Z,24.50
2019-02-21T07:19:54.735Z,20.87
2019-02-21T07:22:39.770Z,26.40
2019-02-21T07:25:44.476Z,24.70
2019-02-21T07:28:28.984Z,24.87
2019-02-21T07:31:13.925Z,23.67
2019-02-21T07:34:01.384Z,24.70
2019-02-21T07:36:45.860Z,24.50
2019-02-21T07:39:36.062Z,24.47
2019-02-21T07:42:16.875Z,25.13
2019-02-21T07:45:02.029Z,24.80
2019-02-21T07:47:47.222Z,23.10
2019-02-21T07:50:32.191Z,23.37
2019-02-21T07:53:17.113Z,26.13
2019-02-21T07:56:01.392Z,23.77
2019-02-21T07:58:46.289Z,27.07
2019-02-21T08:01:30.674Z,26.43
2019-02-21T08:04:15.454Z,25.23
2019-02-21T08:06:59.653Z,25.43
2019-02-21T08:09:43.841Z,25.70
2019-02-21T08:12:29.574Z,25.80
2019-02-21T08:15:14.844Z,25.73
2019-02-21T08:17:59.806Z,26.03
2019-02-21T08:20:44.807Z,27.17
2019-02-21T08:23:32.289Z,26.90
2019-02-21T08:26:15.854Z,25.37
2019-02-21T08:29:00.812Z,27.97
2019-02-21T08:31:44.931Z,26.93
2019-02-21T08:34:33.518Z,27.43
2019-02-21T08:37:17.900Z,29.17
2019-02-21T08:40:02.912Z,28.90
2019-02-21T08:42:47.967Z,28.20
2019-02-21T08:45:32.949Z,29.40
2019-02-21T08:48:17.858Z,29.50
2019-02-21T08:51:02.845Z,29.33
2019-02-21T08:53:47.919Z,29.40
2019-02-21T08:56:32.961Z,27.20
2019-02-21T08:59:17.941Z,33.00
2019-02-21T09:02:00.456Z,31.23
2019-02-21T09:04:51.782Z,27.60
2019-02-21T09:07:36.256Z,28.93
2019-02-21T09:10:18.769Z,26.43
2019-02-21T09:13:10.098Z,28.70
2019-02-21T09:15:55.934Z,27.80
2019-02-21T09:18:40.671Z,29.00
2019-02-21T09:21:25.580Z,28.17
2019-02-21T09:24:10.637Z,26.70
2019-02-21T09:26:57.101Z,29.93
2019-02-21T09:29:41.770Z,28.60
2019-02-21T09:32:24.251Z,29.07
2019-02-21T09:35:15.621Z,28.13
2019-02-21T09:37:59.952Z,27.67
2019-02-21T09:40:44.898Z,26.70
2019-02-21T09:43:29.643Z,27.13
2019-02-21T09:46:14.630Z,25.80
2019-02-21T09:48:59.682Z,26.60
2019-02-21T09:51:44.578Z,24.87
2019-02-21T09:54:29.514Z,26.33
2019-02-21T09:57:14.506Z,25.00
2019-02-21T09:59:59.375Z,23.87
2019-02-21T10:02:44.378Z,24.10
2019-02-21T10:05:29.336Z,23.00
2019-02-21T10:08:13.578Z,21.90
2019-02-21T10:11:00.721Z,23.57
2019-02-21T10:13:44.688Z,21.00
2019-02-21T10:16:28.874Z,22.23
2019-02-21T10:19:13.042Z,19.47
2019-02-21T10:21:58.197Z,20.57
2019-02-21T10:24:43.342Z,20.07
2019-02-21T10:27:25.856Z,18.90
2019-02-21T10:30:17.670Z,18.60
2019-02-21T10:33:02.762Z,18.10
2019-02-21T10:35:45.154Z,19.67
2019-02-21T10:38:29.492Z,18.73
2019-02-21T10:41:13.646Z,17.27
2019-02-21T10:43:57.841Z,17.63
2019-02-21T10:46:42.917Z,17.50
2019-02-21T10:49:28.018Z,16.33
2019-02-21T10:52:13.014Z,16.90
2019-02-21T10:54:57.888Z,17.50
2019-02-21T10:57:45.287Z,16.87
2019-02-21T11:00:29.244Z,16.03
2019-02-21T11:03:14.170Z,15.37
2019-02-21T11:05:59.237Z,14.47
2019-02-21T11:08:44.190Z,15.77
2019-02-21T11:11:29.098Z,15.00
2019-02-21T11:14:14.113Z,13.10
2019-02-21T11:16:58.302Z,14.43
2019-02-21T11:19:42.476Z,13.60
2019-02-21T11:22:26.607Z,12.73
2019-02-21T11:25:11.563Z,15.30
2019-02-21T11:27:56.806Z,14.10
2019-02-21T11:30:41.585Z,13.43
2019-02-21T11:33:26.529Z,12.83
2019-02-21T11:36:11.551Z,13.53
2019-02-21T11:38:56.478Z,14.60
2019-02-21T11:41:41.511Z,14.00
2019-02-21T11:44:26.550Z,13.10
2019-02-21T11:47:11.531Z,12.70
2019-02-21T11:49:56.510Z,12.97
2019-02-21T11:52:40.695Z,14.73
2019-02-21T11:55:23.122Z,14.00
2019-02-21T11:58:14.553Z,11.83
2019-02-21T12:00:58.831Z,10.83
2019-02-21T12:03:43.032Z,13.67
2019-02-21T12:06:25.538Z,11.63
2019-02-21T12:09:11.917Z,12.40
2019-02-21T12:11:56.314Z,10.63
2019-02-21T12:14:41.255Z,11.77
2019-02-21T12:17:26.273Z,12.60
2019-02-21T12:20:11.402Z,11.77
2019-02-21T12:22:55.529Z,10.93
2019-02-21T12:25:40.636Z,9.63
2019-02-21T12:28:25.711Z,10.67
2019-02-21T12:31:09.965Z,13.33
2019-02-21T12:33:54.958Z,10.50
2019-02-21T12:36:39.935Z,11.77
2019-02-21T12:39:25.140Z,11.60
2019-02-21T12:42:10.106Z,11.70
2019-02-21T12:44:54.247Z,11.87
2019-02-21T12:47:36.727Z,10.70
2019-02-21T12:50:21.459Z,11.20
2019-02-21T12:53:06.430Z,11.00
2019-02-21T12:55:51.510Z,11.33
2019-02-21T12:58:36.266Z,12.13
2019-02-21T13:01:21.337Z,11.53
2019-02-21T13:03:53.082Z,11.37
2019-02-21T13:06:45.196Z,10.57
2019-02-21T13:09:37.241Z,11.48
2019-02-21T13:12:21.605Z,9.33
2019-02-21T13:15:06.654Z,8.43
2019-02-21T13:17:51.938Z,8.47
2019-02-21T13:20:36.575Z,6.83
2019-02-21T13:23:21.473Z,6.40
2019-02-21T13:26:06.430Z,6.40
2019-02-21T13:28:51.467Z,7.10
2019-02-21T13:31:36.715Z,6.97
2019-02-21T13:34:21.798Z,6.30
2019-02-21T13:37:04.278Z,6.33
2019-02-21T13:39:55.611Z,6.00
2019-02-21T13:42:40.249Z,8.10
2019-02-21T13:45:25.076Z,6.97
2019-02-21T13:48:09.989Z,7.50
2019-02-21T13:50:54.891Z,7.33
2019-02-21T13:53:39.930Z,6.17
2019-02-21T13:56:24.775Z,7.70
2019-02-21T13:59:09.671Z,7.60
2019-02-21T14:01:54.622Z,7.23
2019-02-21T14:04:39.351Z,7.37
2019-02-21T14:07:24.323Z,7.77
2019-02-21T14:10:09.104Z,8.70
2019-02-21T14:12:54.203Z,8.03
2019-02-21T14:15:39.145Z,7.93
2019-02-21T14:18:24.582Z,8.37
2019-02-21T14:21:09.311Z,8.50
2019-02-21T14:23:53.595Z,8.27
2019-02-21T14:26:38.510Z,8.93
2019-02-21T14:29:23.494Z,8.37
2019-02-21T14:32:08.373Z,8.67
2019-02-21T14:34:53.383Z,9.50
2019-02-21T14:37:37.603Z,8.70
2019-02-21T14:40:22.618Z,9.40
2019-02-21T14:43:07.715Z,9.40
2019-02-21T14:45:52.740Z,9.00
2019-02-21T14:48:37.735Z,10.90
2019-02-21T14:51:22.757Z,11.17
2019-02-21T14:54:07.619Z,12.00
2019-02-21T14:56:54.219Z,12.07
2019-02-21T14:59:40.889Z,11.80
2019-02-21T15:02:25.570Z,12.63
2019-02-21T15:05:10.581Z,14.20
2019-02-21T15:07:55.549Z,13.80
2019-02-21T15:10:40.358Z,13.53
2019-02-21T15:13:25.672Z,14.70
2019-02-21T15:16:10.315Z,15.00
2019-02-21T15:18:55.247Z,16.03
2019-02-21T15:21:39.663Z,16.20
2019-02-21T15:24:24.539Z,15.60
2019-02-21T15:27:09.602Z,16.27
2019-02-21T15:29:57.294Z,17.57
2019-02-21T15:32:39.188Z,17.27
2019-02-21T15:35:30.495Z,16.60
2019-02-21T15:38:20.003Z,17.07
2019-02-21T15:41:01.579Z,17.30
2019-02-21T15:43:46.552Z,16.13
2019-02-21T15:46:31.411Z,17.57
2019-02-21T15:49:15.745Z,18.23
2019-02-21T15:52:00.591Z,31.27
2019-02-21T15:54:44.763Z,27.73
2019-02-21T15:57:29.811Z,18.73
2019-02-21T16:00:14.186Z,17.63
2019-02-21T16:02:59.017Z,17.33
2019-02-21T16:05:44.265Z,17.17
2019-02-21T16:08:29.020Z,31.60
2019-02-21T16:11:13.865Z,21.73
2019-02-21T16:14:02.926Z,19.40
2019-02-21T16:19:34.166Z,19.03
2019-02-21T16:22:23.117Z,18.87
2019-02-21T16:25:08.113Z,18.20
2019-02-21T16:27:55.237Z,20.80
2019-02-21T16:30:39.850Z,17.30
2019-02-21T16:33:24.642Z,17.93
2019-02-21T16:36:09.716Z,19.33
2019-02-21T16:38:54.599Z,17.63
2019-02-21T16:41:39.392Z,17.57
2019-02-21T16:44:24.457Z,19.13
2019-02-21T16:47:10.238Z,18.13
2019-02-21T16:49:54.572Z,16.67
2019-02-21T16:52:39.562Z,19.43
2019-02-21T16:55:24.590Z,15.80
2019-02-21T16:58:09.429Z,15.87
2019-02-21T17:00:56.667Z,19.17
2019-02-21T17:03:39.679Z,16.10
2019-02-21T17:06:25.902Z,16.93
2019-02-21T17:09:10.554Z,23.30
2019-02-21T17:11:55.471Z,17.20
2019-02-21T17:14:40.526Z,16.87
2019-02-21T17:17:25.298Z,16.97
2019-02-21T17:20:10.333Z,14.97
2019-02-21T17:22:54.470Z,14.70
2019-02-21T17:25:39.508Z,14.93
2019-02-21T17:28:24.465Z,13.60
2019-02-21T17:31:09.490Z,14.20
2019-02-21T17:33:54.542Z,15.37
2019-02-21T17:36:39.542Z,14.20
2019-02-21T17:39:24.450Z,13.83
2019-02-21T17:42:09.360Z,14.17
2019-02-21T17:44:54.300Z,13.97
2019-02-21T17:47:39.302Z,14.67
2019-02-21T17:50:24.242Z,17.40
2019-02-21T17:53:09.250Z,17.83
2019-02-21T17:55:54.275Z,18.33
2019-02-21T17:58:39.401Z,18.90
2019-02-21T18:01:27.766Z,21.93
2019-02-21T18:04:14.692Z,20.60
2019-02-21T18:06:59.709Z,22.73
2019-02-21T18:09:44.680Z,23.97
2019-02-21T18:15:20.779Z,26.13
2019-02-21T18:18:03.242Z,29.70
2019-02-21T18:20:47.862Z,30.60
2019-02-21T18:23:32.819Z,31.93
2019-02-21T18:26:17.833Z,30.40
2019-02-21T18:29:02.854Z,31.53
2019-02-21T18:31:47.918Z,33.23
2019-02-21T18:34:32.013Z,33.50
2019-02-21T18:37:16.286Z,34.30
2019-02-21T18:39:48.041Z,34.40
2019-02-21T18:42:39.391Z,36.20
2019-02-21T18:45:24.305Z,36.73
2019-02-21T18:48:09.398Z,35.17
2019-02-21T18:50:54.533Z,36.03
2019-02-21T18:53:39.534Z,38.67
2019-02-21T18:56:22.322Z,41.00
2019-02-21T18:59:08.526Z,43.77
2019-02-21T19:01:53.169Z,45.87
2019-02-21T19:04:38.199Z,44.33
2019-02-21T19:13:09.640Z,41.63
2019-02-21T19:15:54.158Z,45.17
2019-02-21T19:18:41.828Z,50.77
2019-02-21T19:21:26.551Z,45.47
2019-02-21T19:24:14.387Z,46.27
2019-02-21T19:29:50.539Z,48.83
2019-02-21T19:32:35.516Z,50.60
2019-02-21T19:35:24.944Z,50.83
2019-02-21T19:38:10.886Z,49.30
2019-02-21T19:40:55.821Z,52.57
2019-02-21T19:46:55.254Z,54.43
2019-02-21T19:49:40.930Z,53.43
2019-02-21T19:55:30.518Z,55.47
2019-02-21T19:58:15.609Z,56.77
2019-02-21T20:03:59.749Z,55.33
2019-02-21T20:09:35.933Z,58.13
2019-02-21T20:12:21.016Z,56.57
2019-02-21T20:15:07.636Z,60.37
2019-02-21T20:20:43.323Z,60.90
2019-02-21T20:23:27.253Z,60.93
2019-02-21T20:30:28.771Z,61.67
2019-02-21T20:32:32.918Z,62.07
2019-02-21T20:35:19.345Z,63.50
2019-02-21T20:37:51.439Z,63.60
2019-02-21T20:40:43.090Z,62.23
2019-02-21T20:43:32.424Z,63.20
2019-02-21T20:52:19.025Z,65.47
2019-02-21T21:03:52.809Z,64.60
2019-02-21T21:06:37.792Z,66.13
2019-02-21T21:09:22.716Z,62.73
2019-02-21T21:12:07.930Z,67.10
2019-02-21T21:14:52.987Z,62.80
2019-02-21T21:23:30.811Z,65.20
2019-02-21T21:29:02.070Z,65.43
2019-02-21T21:31:46.327Z,65.77
2019-02-21T21:34:31.275Z,66.33
2019-02-21T21:37:16.271Z,67.03
2019-02-21T21:40:01.679Z,65.50
2019-02-21T21:42:46.483Z,65.20
2019-02-21T21:45:31.457Z,65.70
2019-02-21T21:48:16.563Z,64.17
2019-02-21T21:51:01.630Z,61.97
2019-02-21T21:53:46.726Z,63.57
2019-02-21T21:56:31.717Z,62.83
2019-02-21T21:59:16.638Z,61.53
2019-02-21T22:02:01.729Z,64.17
2019-02-21T22:04:46.646Z,63.50
2019-02-21T22:07:31.624Z,59.97
2019-02-21T22:10:16.661Z,60.80
2019-02-21T22:13:12.031Z,60.77
2019-02-21T22:15:43.683Z,55.50
2019-02-21T22:18:35.021Z,61.40
2019-02-21T22:21:26.358Z,59.47
2019-02-21T22:24:10.698Z,58.20
2019-02-21T22:26:55.775Z,55.93
2019-02-21T22:29:40.712Z,60.87
2019-02-21T22:32:23.175Z,59.10
2019-02-21T22:35:07.878Z,60.07
2019-02-21T22:37:52.933Z,57.17
2019-02-21T22:40:37.882Z,54.50
2019-02-21T22:43:22.084Z,55.93
2019-02-21T22:46:06.285Z,54.03
2019-02-21T22:48:50.672Z,52.90
2019-02-21T22:51:35.634Z,52.30
2019-02-21T22:54:20.417Z,52.27
2019-02-21T22:57:05.245Z,49.80
2019-02-21T22:59:50.182Z,52.03
2019-02-21T23:02:35.241Z,51.97
2019-02-21T23:05:20.066Z,51.57
2019-02-21T23:08:04.286Z,52.63
2019-02-21T23:10:49.299Z,51.50
2019-02-21T23:13:34.920Z,51.67
2019-02-21T23:16:19.529Z,50.13
2019-02-21T23:19:02.041Z,50.60
2019-02-21T23:21:53.461Z,50.67
2019-02-21T23:24:37.782Z,47.43
2019-02-21T23:27:21.933Z,46.07
2019-02-21T23:30:06.241Z,44.30
2019-02-21T23:32:50.417Z,49.73
2019-02-21T23:35:35.366Z,45.87
2019-02-21T23:38:20.399Z,46.13
2019-02-21T23:41:05.480Z,39.90
2019-02-21T23:43:49.710Z,43.03
2019-02-21T23:46:34.873Z,43.20
2019-02-21T23:49:19.826Z,40.50
2019-02-21T23:52:04.866Z,44.17
2019-02-21T23:54:49.805Z,42.97
2019-02-21T23:57:34.837Z,38.80
